sensor_id;sensor_type;location;lat;lon;timestamp;temperature;humidity
3954;DHT22;1991;48.682;9.030;2022-12-20T00:01:08;5.10;99.90
3954;DHT22;1991;48.682;9.030;2022-12-20T00:03:36;5.10;99.90
3954;DHT22;1991;48.682;9.030;2022-12-20T00:06:02;5.10;99.90
3954;DHT22;1991;48.682;9.030;2022-12-20T00:08:28;5.10;99.90
3954;DHT22;1991;48.682;9.030;2022-12-20T00:10:54;5.20;99.90
3954;DHT22;1991;48.682;9.030;2022-12-20T00:13:19;5.40;99.90
3954;DHT22;1991;48.682;9.030;2022-12-20T00:15:45;5.40;99.90
3954;DHT22;1991;48.682;9.030;2022-12-20T00:18:10;5.50;99.90
3954;DHT22;1991;48.682;9.030;2022-12-20T00:20:36;5.40;99.90
3954;DHT22;1991;48.682;9.030;2022-12-20T00:23:01;5.30;99.90
3954;DHT22;1991;48.682;9.030;2022-12-20T00:25:27;5.20;99.90
3954;DHT22;1991;48.682;9.030;2022-12-20T00:27:53;5.10;99.90
3954;DHT22;1991;48.682;9.030;2022-12-20T00:30:19;5.00;99.90
3954;DHT22;1991;48.682;9.030;2022-12-20T00:32:45;4.90;99.90
3954;DHT22;1991;48.682;9.030;2022-12-20T00:35:11;4.90;99.90
3954;DHT22;1991;48.682;9.030;2022-12-20T00:37:37;4.90;99.90
3954;DHT22;1991;48.682;9.030;2022-12-20T00:40:03;5.00;99.90
3954;DHT22;1991;48.682;9.030;2022-12-20T00:42:29;5.00;99.90
3954;DHT22;1991;48.682;9.030;2022-12-20T00:44:55;5.00;99.90
3954;DHT22;1991;48.682;9.030;2022-12-20T00:47:20;5.10;99.90
3954;DHT22;1991;48.682;9.030;2022-12-20T00:49:46;5.20;99.90
3954;DHT22;1991;48.682;9.030;2022-12-20T00:52:12;5.20;99.90
3954;DHT22;1991;48.682;9.030;2022-12-20T00:54:37;5.30;99.90
3954;DHT22;1991;48.682;9.030;2022-12-20T00:57:03;5.40;99.90
3954;DHT22;1991;48.682;9.030;2022-12-20T00:59:28;5.50;99.90
3954;DHT22;1991;48.682;9.030;2022-12-20T01:01:54;5.50;99.90
3954;DHT22;1991;48.682;9.030;2022-12-20T01:04:20;5.70;99.90
3954;DHT22;1991;48.682;9.030;2022-12-20T01:06:45;5.70;99.90
3954;DHT22;1991;48.682;9.030;2022-12-20T01:09:11;5.80;99.90
3954;DHT22;1991;48.682;9.030;2022-12-20T01:11:38;5.90;99.90
3954;DHT22;1991;48.682;9.030;2022-12-20T01:14:13;5.90;99.90
3954;DHT22;1991;48.682;9.030;2022-12-20T01:16:44;6.00;99.90
3954;DHT22;1991;48.682;9.030;2022-12-20T01:19:12;6.00;99.90
3954;DHT22;1991;48.682;9.030;2022-12-20T01:21:39;6.00;99.90
3954;DHT22;1991;48.682;9.030;2022-12-20T01:24:12;6.00;99.90
3954;DHT22;1991;48.682;9.030;2022-12-20T01:26:38;6.00;99.90
3954;DHT22;1991;48.682;9.030;2022-12-20T01:29:04;6.00;99.90
3954;DHT22;1991;48.682;9.030;2022-12-20T01:31:30;6.10;99.90
3954;DHT22;1991;48.682;9.030;2022-12-20T01:33:57;6.10;99.90
3954;DHT22;1991;48.682;9.030;2022-12-20T01:36:25;6.10;99.90
3954;DHT22;1991;48.682;9.030;2022-12-20T01:38:59;6.20;99.90
3954;DHT22;1991;48.682;9.030;2022-12-20T01:41:26;6.10;99.90
3954;DHT22;1991;48.682;9.030;2022-12-20T01:43:55;6.00;99.90
3954;DHT22;1991;48.682;9.030;2022-12-20T01:46:24;6.00;99.90
3954;DHT22;1991;48.682;9.030;2022-12-20T01:49:04;5.90;99.90
3954;DHT22;1991;48.682;9.030;2022-12-20T01:51:33;5.90;99.90
3954;DHT22;1991;48.682;9.030;2022-12-20T01:54:25;5.90;99.90
3954;DHT22;1991;48.682;9.030;2022-12-20T01:57:02;5.80;99.90
3954;DHT22;1991;48.682;9.030;2022-12-20T01:59:32;5.80;99.90
3954;DHT22;1991;48.682;9.030;2022-12-20T02:02:02;5.80;99.90
3954;DHT22;1991;48.682;9.030;2022-12-20T02:04:29;5.80;99.90
3954;DHT22;1991;48.682;9.030;2022-12-20T02:06:55;5.70;99.90
3954;DHT22;1991;48.682;9.030;2022-12-20T02:09:22;5.70;99.90
3954;DHT22;1991;48.682;9.030;2022-12-20T02:12:20;5.60;99.90
3954;DHT22;1991;48.682;9.030;2022-12-20T02:20:38;5.60;99.90
3954;DHT22;1991;48.682;9.030;2022-12-20T02:31:42;5.40;99.90
3954;DHT22;1991;48.682;9.030;2022-12-20T02:34:10;5.40;99.90
3954;DHT22;1991;48.682;9.030;2022-12-20T02:36:37;5.40;99.90
3954;DHT22;1991;48.682;9.030;2022-12-20T02:39:02;5.40;99.90
3954;DHT22;1991;48.682;9.030;2022-12-20T02:41:44;5.40;99.90
3954;DHT22;1991;48.682;9.030;2022-12-20T02:44:13;5.40;99.90
3954;DHT22;1991;48.682;9.030;2022-12-20T02:47:02;5.30;99.90
3954;DHT22;1991;48.682;9.030;2022-12-20T02:49:31;5.40;99.90
3954;DHT22;1991;48.682;9.030;2022-12-20T02:52:00;5.40;99.90
3954;DHT22;1991;48.682;9.030;2022-12-20T02:54:26;5.30;99.90
3954;DHT22;1991;48.682;9.030;2022-12-20T02:57:07;5.30;99.90
3954;DHT22;1991;48.682;9.030;2022-12-20T02:59:42;5.30;99.90
3954;DHT22;1991;48.682;9.030;2022-12-20T03:02:10;5.30;99.90
3954;DHT22;1991;48.682;9.030;2022-12-20T03:04:38;5.30;99.90
3954;DHT22;1991;48.682;9.030;2022-12-20T03:07:10;5.30;99.90
3954;DHT22;1991;48.682;9.030;2022-12-20T03:09:39;5.20;99.90
3954;DHT22;1991;48.682;9.030;2022-12-20T03:12:06;5.20;99.90
3954;DHT22;1991;48.682;9.030;2022-12-20T03:14:32;5.10;99.90
3954;DHT22;1991;48.682;9.030;2022-12-20T03:16:58;5.10;99.90
3954;DHT22;1991;48.682;9.030;2022-12-20T03:19:23;5.10;99.90
3954;DHT22;1991;48.682;9.030;2022-12-20T03:21:49;5.10;99.90
3954;DHT22;1991;48.682;9.030;2022-12-20T03:24:15;5.10;99.90
3954;DHT22;1991;48.682;9.030;2022-12-20T03:26:42;5.10;99.90
3954;DHT22;1991;48.682;9.030;2022-12-20T03:29:08;5.00;99.90
3954;DHT22;1991;48.682;9.030;2022-12-20T03:31:34;5.00;99.90
3954;DHT22;1991;48.682;9.030;2022-12-20T03:34:00;5.00;99.90
3954;DHT22;1991;48.682;9.030;2022-12-20T03:36:25;5.00;99.90
3954;DHT22;1991;48.682;9.030;2022-12-20T03:38:52;5.00;99.90
3954;DHT22;1991;48.682;9.030;2022-12-20T03:41:18;5.10;99.90
3954;DHT22;1991;48.682;9.030;2022-12-20T03:43:44;5.10;99.90
3954;DHT22;1991;48.682;9.030;2022-12-20T03:46:10;5.00;99.90
3954;DHT22;1991;48.682;9.030;2022-12-20T03:48:35;5.10;99.90
3954;DHT22;1991;48.682;9.030;2022-12-20T03:51:01;5.10;99.90
3954;DHT22;1991;48.682;9.030;2022-12-20T03:53:26;5.10;99.90
3954;DHT22;1991;48.682;9.030;2022-12-20T03:55:52;5.00;99.90
3954;DHT22;1991;48.682;9.030;2022-12-20T03:58:17;5.10;99.90
3954;DHT22;1991;48.682;9.030;2022-12-20T04:00:43;5.10;99.90
3954;DHT22;1991;48.682;9.030;2022-12-20T04:03:09;5.10;99.90
3954;DHT22;1991;48.682;9.030;2022-12-20T04:05:34;5.10;99.90
3954;DHT22;1991;48.682;9.030;2022-12-20T04:08:00;5.10;99.90
3954;DHT22;1991;48.682;9.030;2022-12-20T04:10:26;5.10;99.90
3954;DHT22;1991;48.682;9.030;2022-12-20T04:12:51;5.10;99.90
3954;DHT22;1991;48.682;9.030;2022-12-20T04:15:17;5.10;99.90
3954;DHT22;1991;48.682;9.030;2022-12-20T04:17:43;5.10;99.90
3954;DHT22;1991;48.682;9.030;2022-12-20T04:20:12;5.20;99.90
3954;DHT22;1991;48.682;9.030;2022-12-20T04:22:48;5.20;99.90
3954;DHT22;1991;48.682;9.030;2022-12-20T04:25:16;5.20;99.90
3954;DHT22;1991;48.682;9.030;2022-12-20T04:27:42;5.20;99.90
3954;DHT22;1991;48.682;9.030;2022-12-20T04:30:08;5.20;99.90
3954;DHT22;1991;48.682;9.030;2022-12-20T04:32:34;5.30;99.90
3954;DHT22;1991;48.682;9.030;2022-12-20T04:35:00;5.20;99.90
3954;DHT22;1991;48.682;9.030;2022-12-20T04:37:26;5.20;99.90
3954;DHT22;1991;48.682;9.030;2022-12-20T04:39:51;5.20;99.90
3954;DHT22;1991;48.682;9.030;2022-12-20T04:42:17;5.30;99.90
3954;DHT22;1991;48.682;9.030;2022-12-20T04:44:42;5.40;99.90
3954;DHT22;1991;48.682;9.030;2022-12-20T04:47:08;5.60;99.90
3954;DHT22;1991;48.682;9.030;2022-12-20T04:49:34;5.70;99.90
3954;DHT22;1991;48.682;9.030;2022-12-20T04:52:00;5.80;99.90
3954;DHT22;1991;48.682;9.030;2022-12-20T04:54:46;5.90;99.90
3954;DHT22;1991;48.682;9.030;2022-12-20T04:57:12;5.90;99.90
3954;DHT22;1991;48.682;9.030;2022-12-20T04:59:38;5.80;99.90
3954;DHT22;1991;48.682;9.030;2022-12-20T05:02:03;5.80;99.90
3954;DHT22;1991;48.682;9.030;2022-12-20T05:04:29;5.80;99.90
3954;DHT22;1991;48.682;9.030;2022-12-20T05:06:55;5.80;99.90
3954;DHT22;1991;48.682;9.030;2022-12-20T05:09:20;5.70;99.90
3954;DHT22;1991;48.682;9.030;2022-12-20T05:11:46;5.70;99.90
3954;DHT22;1991;48.682;9.030;2022-12-20T05:14:11;5.70;99.90
3954;DHT22;1991;48.682;9.030;2022-12-20T05:16:37;5.70;99.90
3954;DHT22;1991;48.682;9.030;2022-12-20T05:19:03;5.80;99.90
3954;DHT22;1991;48.682;9.030;2022-12-20T05:21:29;5.90;99.90
3954;DHT22;1991;48.682;9.030;2022-12-20T05:24:13;6.00;99.90
3954;DHT22;1991;48.682;9.030;2022-12-20T05:26:58;6.10;99.90
3954;DHT22;1991;48.682;9.030;2022-12-20T05:29:24;6.10;99.90
3954;DHT22;1991;48.682;9.030;2022-12-20T05:31:49;6.20;99.90
3954;DHT22;1991;48.682;9.030;2022-12-20T05:34:15;6.20;99.90
3954;DHT22;1991;48.682;9.030;2022-12-20T05:36:40;6.20;99.90
3954;DHT22;1991;48.682;9.030;2022-12-20T05:39:06;6.20;99.90
3954;DHT22;1991;48.682;9.030;2022-12-20T05:41:32;6.30;99.90
3954;DHT22;1991;48.682;9.030;2022-12-20T05:43:57;6.30;99.90
3954;DHT22;1991;48.682;9.030;2022-12-20T05:46:23;6.30;99.90
3954;DHT22;1991;48.682;9.030;2022-12-20T05:48:48;6.30;99.90
3954;DHT22;1991;48.682;9.030;2022-12-20T05:51:14;6.30;99.90
3954;DHT22;1991;48.682;9.030;2022-12-20T05:53:40;6.30;99.90
3954;DHT22;1991;48.682;9.030;2022-12-20T05:56:05;6.30;99.90
3954;DHT22;1991;48.682;9.030;2022-12-20T05:58:31;6.30;99.90
3954;DHT22;1991;48.682;9.030;2022-12-20T06:01:00;6.20;99.90
3954;DHT22;1991;48.682;9.030;2022-12-20T06:03:26;6.30;99.90
3954;DHT22;1991;48.682;9.030;2022-12-20T06:05:51;6.30;99.90
3954;DHT22;1991;48.682;9.030;2022-12-20T06:08:17;6.30;99.90
3954;DHT22;1991;48.682;9.030;2022-12-20T06:10:42;6.20;99.90
3954;DHT22;1991;48.682;9.030;2022-12-20T06:13:09;6.20;99.90
3954;DHT22;1991;48.682;9.030;2022-12-20T06:15:35;6.20;99.90
3954;DHT22;1991;48.682;9.030;2022-12-20T06:18:01;6.30;99.90
3954;DHT22;1991;48.682;9.030;2022-12-20T06:20:28;6.30;99.90
3954;DHT22;1991;48.682;9.030;2022-12-20T06:22:54;6.30;99.90
3954;DHT22;1991;48.682;9.030;2022-12-20T06:25:19;6.40;99.90
3954;DHT22;1991;48.682;9.030;2022-12-20T06:27:45;6.50;99.90
3954;DHT22;1991;48.682;9.030;2022-12-20T06:30:11;6.50;99.90
3954;DHT22;1991;48.682;9.030;2022-12-20T06:32:37;6.50;99.90
3954;DHT22;1991;48.682;9.030;2022-12-20T06:35:04;6.50;99.90
3954;DHT22;1991;48.682;9.030;2022-12-20T06:37:30;6.50;99.90
3954;DHT22;1991;48.682;9.030;2022-12-20T06:39:56;6.50;99.90
3954;DHT22;1991;48.682;9.030;2022-12-20T06:42:22;6.50;99.90
3954;DHT22;1991;48.682;9.030;2022-12-20T06:44:48;6.50;99.90
3954;DHT22;1991;48.682;9.030;2022-12-20T06:47:14;6.50;99.90
3954;DHT22;1991;48.682;9.030;2022-12-20T06:49:39;6.50;99.90
3954;DHT22;1991;48.682;9.030;2022-12-20T06:52:05;6.50;99.90
3954;DHT22;1991;48.682;9.030;2022-12-20T06:54:31;6.50;99.90
3954;DHT22;1991;48.682;9.030;2022-12-20T06:56:56;6.50;99.90
3954;DHT22;1991;48.682;9.030;2022-12-20T06:59:22;6.60;99.90
3954;DHT22;1991;48.682;9.030;2022-12-20T07:01:47;6.60;99.90
3954;DHT22;1991;48.682;9.030;2022-12-20T07:04:13;6.70;99.90
3954;DHT22;1991;48.682;9.030;2022-12-20T07:06:38;6.80;99.90
3954;DHT22;1991;48.682;9.030;2022-12-20T07:09:04;6.80;99.90
3954;DHT22;1991;48.682;9.030;2022-12-20T07:11:29;6.90;99.90
3954;DHT22;1991;48.682;9.030;2022-12-20T07:13:56;7.00;99.90
3954;DHT22;1991;48.682;9.030;2022-12-20T07:16:22;7.00;99.90
3954;DHT22;1991;48.682;9.030;2022-12-20T07:18:52;7.00;99.90
3954;DHT22;1991;48.682;9.030;2022-12-20T07:21:18;7.00;99.90
3954;DHT22;1991;48.682;9.030;2022-12-20T07:23:45;7.00;99.90
3954;DHT22;1991;48.682;9.030;2022-12-20T07:26:11;7.00;99.90
3954;DHT22;1991;48.682;9.030;2022-12-20T07:28:38;7.10;99.90
3954;DHT22;1991;48.682;9.030;2022-12-20T07:31:03;7.10;99.90
3954;DHT22;1991;48.682;9.030;2022-12-20T07:33:30;7.10;99.90
3954;DHT22;1991;48.682;9.030;2022-12-20T07:36:03;7.20;99.90
3954;DHT22;1991;48.682;9.030;2022-12-20T07:38:29;7.20;99.90
3954;DHT22;1991;48.682;9.030;2022-12-20T07:40:55;7.20;99.90
3954;DHT22;1991;48.682;9.030;2022-12-20T07:43:21;7.30;99.90
3954;DHT22;1991;48.682;9.030;2022-12-20T07:45:46;7.20;99.90
3954;DHT22;1991;48.682;9.030;2022-12-20T07:48:12;7.30;99.90
3954;DHT22;1991;48.682;9.030;2022-12-20T07:50:39;7.30;99.90
3954;DHT22;1991;48.682;9.030;2022-12-20T07:53:06;7.20;99.90
3954;DHT22;1991;48.682;9.030;2022-12-20T07:55:32;7.30;99.90
3954;DHT22;1991;48.682;9.030;2022-12-20T07:58:03;7.30;99.90
3954;DHT22;1991;48.682;9.030;2022-12-20T08:00:30;7.30;99.90
3954;DHT22;1991;48.682;9.030;2022-12-20T08:03:00;7.40;99.90
3954;DHT22;1991;48.682;9.030;2022-12-20T08:05:27;7.40;99.90
3954;DHT22;1991;48.682;9.030;2022-12-20T08:07:55;7.40;99.90
3954;DHT22;1991;48.682;9.030;2022-12-20T08:10:23;7.50;99.90
3954;DHT22;1991;48.682;9.030;2022-12-20T08:12:49;7.40;99.90
3954;DHT22;1991;48.682;9.030;2022-12-20T08:15:17;7.40;99.90
3954;DHT22;1991;48.682;9.030;2022-12-20T08:17:43;7.40;99.90
3954;DHT22;1991;48.682;9.030;2022-12-20T08:20:09;7.50;99.90
3954;DHT22;1991;48.682;9.030;2022-12-20T08:22:35;7.50;99.90
3954;DHT22;1991;48.682;9.030;2022-12-20T08:25:00;7.50;99.90
3954;DHT22;1991;48.682;9.030;2022-12-20T08:27:26;7.50;99.90
3954;DHT22;1991;48.682;9.030;2022-12-20T08:29:52;7.60;99.90
3954;DHT22;1991;48.682;9.030;2022-12-20T08:32:17;7.60;99.90
3954;DHT22;1991;48.682;9.030;2022-12-20T08:34:43;7.70;99.90
3954;DHT22;1991;48.682;9.030;2022-12-20T08:37:08;7.70;99.90
3954;DHT22;1991;48.682;9.030;2022-12-20T08:39:34;7.80;99.90
3954;DHT22;1991;48.682;9.030;2022-12-20T08:42:00;8.00;99.90
3954;DHT22;1991;48.682;9.030;2022-12-20T08:44:25;8.10;99.90
3954;DHT22;1991;48.682;9.030;2022-12-20T08:46:51;8.20;99.90
3954;DHT22;1991;48.682;9.030;2022-12-20T08:49:18;8.30;99.90
3954;DHT22;1991;48.682;9.030;2022-12-20T08:51:44;8.40;99.90
3954;DHT22;1991;48.682;9.030;2022-12-20T08:54:09;8.50;99.90
3954;DHT22;1991;48.682;9.030;2022-12-20T08:56:35;8.50;99.90
3954;DHT22;1991;48.682;9.030;2022-12-20T08:59:00;8.50;99.90
3954;DHT22;1991;48.682;9.030;2022-12-20T09:01:26;8.50;99.90
3954;DHT22;1991;48.682;9.030;2022-12-20T09:03:54;8.40;99.90
3954;DHT22;1991;48.682;9.030;2022-12-20T09:06:21;8.40;99.90
3954;DHT22;1991;48.682;9.030;2022-12-20T09:08:47;8.40;99.90
3954;DHT22;1991;48.682;9.030;2022-12-20T09:11:22;8.40;99.90
3954;DHT22;1991;48.682;9.030;2022-12-20T09:13:50;8.40;99.90
3954;DHT22;1991;48.682;9.030;2022-12-20T09:16:17;8.40;99.90
3954;DHT22;1991;48.682;9.030;2022-12-20T09:18:46;8.40;99.90
3954;DHT22;1991;48.682;9.030;2022-12-20T09:21:12;8.40;99.90
3954;DHT22;1991;48.682;9.030;2022-12-20T09:23:38;8.40;99.90
3954;DHT22;1991;48.682;9.030;2022-12-20T09:26:07;8.50;99.90
3954;DHT22;1991;48.682;9.030;2022-12-20T09:28:33;8.40;99.90
3954;DHT22;1991;48.682;9.030;2022-12-20T09:31:00;8.40;99.90
3954;DHT22;1991;48.682;9.030;2022-12-20T09:33:27;8.50;99.90
3954;DHT22;1991;48.682;9.030;2022-12-20T09:35:53;8.60;99.90
3954;DHT22;1991;48.682;9.030;2022-12-20T09:38:18;8.80;99.90
3954;DHT22;1991;48.682;9.030;2022-12-20T09:40:46;8.90;99.90
3954;DHT22;1991;48.682;9.030;2022-12-20T09:43:14;9.00;99.90
3954;DHT22;1991;48.682;9.030;2022-12-20T09:45:41;9.10;99.90
3954;DHT22;1991;48.682;9.030;2022-12-20T09:48:15;9.30;99.90
3954;DHT22;1991;48.682;9.030;2022-12-20T09:56:16;10.70;99.90
3954;DHT22;1991;48.682;9.030;2022-12-20T09:58:57;10.90;99.00
3954;DHT22;1991;48.682;9.030;2022-12-20T10:01:25;10.80;98.40
3954;DHT22;1991;48.682;9.030;2022-12-20T10:03:52;10.70;98.20
3954;DHT22;1991;48.682;9.030;2022-12-20T10:22:32;9.70;99.90
3954;DHT22;1991;48.682;9.030;2022-12-20T10:25:25;9.60;99.90
3954;DHT22;1991;48.682;9.030;2022-12-20T10:27:55;9.50;99.90
3954;DHT22;1991;48.682;9.030;2022-12-20T10:30:24;9.40;99.90
3954;DHT22;1991;48.682;9.030;2022-12-20T10:32:53;9.30;99.90
3954;DHT22;1991;48.682;9.030;2022-12-20T10:35:39;9.30;99.90
3954;DHT22;1991;48.682;9.030;2022-12-20T10:38:07;9.20;99.90
3954;DHT22;1991;48.682;9.030;2022-12-20T10:40:46;9.20;99.90
3954;DHT22;1991;48.682;9.030;2022-12-20T10:43:21;9.20;99.90
3954;DHT22;1991;48.682;9.030;2022-12-20T10:46:14;9.20;99.90
3954;DHT22;1991;48.682;9.030;2022-12-20T10:48:42;9.20;99.90
3954;DHT22;1991;48.682;9.030;2022-12-20T10:53:55;9.30;99.90
3954;DHT22;1991;48.682;9.030;2022-12-20T10:58:59;9.40;99.90
3954;DHT22;1991;48.682;9.030;2022-12-20T11:01:34;9.50;99.90
3954;DHT22;1991;48.682;9.030;2022-12-20T11:09:32;9.80;99.90
3954;DHT22;1991;48.682;9.030;2022-12-20T11:12:15;9.90;99.60
3954;DHT22;1991;48.682;9.030;2022-12-20T11:14:43;10.00;99.20
3954;DHT22;1991;48.682;9.030;2022-12-20T11:17:28;10.00;99.00
3954;DHT22;1991;48.682;9.030;2022-12-20T11:25:33;10.00;98.80
3954;DHT22;1991;48.682;9.030;2022-12-20T11:37:01;10.00;98.90
3954;DHT22;1991;48.682;9.030;2022-12-20T11:39:29;9.90;99.30
3954;DHT22;1991;48.682;9.030;2022-12-20T11:45:41;10.00;98.90
3954;DHT22;1991;48.682;9.030;2022-12-20T11:48:55;9.90;98.90
3954;DHT22;1991;48.682;9.030;2022-12-20T11:51:58;9.90;98.90
3954;DHT22;1991;48.682;9.030;2022-12-20T11:54:11;9.80;99.10
3954;DHT22;1991;48.682;9.030;2022-12-20T11:56:43;9.80;99.30
3954;DHT22;1991;48.682;9.030;2022-12-20T11:59:27;9.60;99.60
3954;DHT22;1991;48.682;9.030;2022-12-20T12:02:01;9.50;99.90
3954;DHT22;1991;48.682;9.030;2022-12-20T12:04:36;9.50;99.90
3954;DHT22;1991;48.682;9.030;2022-12-20T12:07:14;9.40;99.90
3954;DHT22;1991;48.682;9.030;2022-12-20T12:12:56;9.30;99.90
3954;DHT22;1991;48.682;9.030;2022-12-20T12:15:47;9.30;99.90
3954;DHT22;1991;48.682;9.030;2022-12-20T12:18:20;9.30;99.90
3954;DHT22;1991;48.682;9.030;2022-12-20T12:25:52;9.40;99.90
3954;DHT22;1991;48.682;9.030;2022-12-20T12:28:19;9.50;99.90
3954;DHT22;1991;48.682;9.030;2022-12-20T12:30:56;9.50;99.90
3954;DHT22;1991;48.682;9.030;2022-12-20T12:33:32;9.50;99.90
3954;DHT22;1991;48.682;9.030;2022-12-20T12:36:45;9.40;99.90
3954;DHT22;1991;48.682;9.030;2022-12-20T12:44:32;9.50;99.90
3954;DHT22;1991;48.682;9.030;2022-12-20T12:47:05;9.50;99.90
3954;DHT22;1991;48.682;9.030;2022-12-20T12:49:33;9.50;99.90
3954;DHT22;1991;48.682;9.030;2022-12-20T12:52:00;9.50;99.90
3954;DHT22;1991;48.682;9.030;2022-12-20T12:54:29;9.60;99.70
3954;DHT22;1991;48.682;9.030;2022-12-20T12:57:00;9.60;99.70
3954;DHT22;1991;48.682;9.030;2022-12-20T13:09:59;10.10;99.40
3954;DHT22;1991;48.682;9.030;2022-12-20T13:20:23;9.80;99.10
3954;DHT22;1991;48.682;9.030;2022-12-20T13:25:34;9.70;99.30
3954;DHT22;1991;48.682;9.030;2022-12-20T13:30:42;9.50;99.70
3954;DHT22;1991;48.682;9.030;2022-12-20T13:36:01;9.40;99.90
3954;DHT22;1991;48.682;9.030;2022-12-20T13:41:29;9.30;99.90
3954;DHT22;1991;48.682;9.030;2022-12-20T13:43:58;9.30;99.90
3954;DHT22;1991;48.682;9.030;2022-12-20T13:49:10;9.20;99.90
3954;DHT22;1991;48.682;9.030;2022-12-20T13:51:36;9.20;99.90
3954;DHT22;1991;48.682;9.030;2022-12-20T13:54:17;9.20;99.90
3954;DHT22;1991;48.682;9.030;2022-12-20T13:56:48;9.30;99.90
3954;DHT22;1991;48.682;9.030;2022-12-20T13:59:26;10.00;99.90
3954;DHT22;1991;48.682;9.030;2022-12-20T14:01:55;11.30;98.10
3954;DHT22;1991;48.682;9.030;2022-12-20T14:04:21;12.20;95.40
3954;DHT22;1991;48.682;9.030;2022-12-20T14:06:52;12.60;93.40
3954;DHT22;1991;48.682;9.030;2022-12-20T14:09:45;12.60;92.70
3954;DHT22;1991;48.682;9.030;2022-12-20T14:12:13;12.40;92.60
3954;DHT22;1991;48.682;9.030;2022-12-20T14:14:44;12.10;92.40
3954;DHT22;1991;48.682;9.030;2022-12-20T14:22:50;11.20;94.50
3954;DHT22;1991;48.682;9.030;2022-12-20T14:25:43;11.00;95.00
3954;DHT22;1991;48.682;9.030;2022-12-20T14:28:34;10.80;95.60
3954;DHT22;1991;48.682;9.030;2022-12-20T14:31:00;10.60;96.00
3954;DHT22;1991;48.682;9.030;2022-12-20T14:33:37;10.50;96.50
3954;DHT22;1991;48.682;9.030;2022-12-20T14:36:08;10.30;96.60
3954;DHT22;1991;48.682;9.030;2022-12-20T14:38:34;10.20;96.90
3954;DHT22;1991;48.682;9.030;2022-12-20T14:41:00;10.10;96.50
3954;DHT22;1991;48.682;9.030;2022-12-20T14:43:33;10.00;96.90
3954;DHT22;1991;48.682;9.030;2022-12-20T14:46:19;9.80;97.20
3954;DHT22;1991;48.682;9.030;2022-12-20T14:48:47;9.70;97.80
3954;DHT22;1991;48.682;9.030;2022-12-20T14:51:19;9.60;98.20
3954;DHT22;1991;48.682;9.030;2022-12-20T14:53:47;9.50;98.70
3954;DHT22;1991;48.682;9.030;2022-12-20T14:56:17;9.40;99.30
3954;DHT22;1991;48.682;9.030;2022-12-20T14:58:44;9.40;99.50
3954;DHT22;1991;48.682;9.030;2022-12-20T15:01:23;9.30;99.70
3954;DHT22;1991;48.682;9.030;2022-12-20T15:03:58;9.20;99.90
3954;DHT22;1991;48.682;9.030;2022-12-20T15:06:38;9.20;99.90
3954;DHT22;1991;48.682;9.030;2022-12-20T15:09:04;9.10;99.90
3954;DHT22;1991;48.682;9.030;2022-12-20T15:11:30;9.00;99.90
3954;DHT22;1991;48.682;9.030;2022-12-20T15:13:56;8.90;99.90
3954;DHT22;1991;48.682;9.030;2022-12-20T15:16:28;8.90;99.90
3954;DHT22;1991;48.682;9.030;2022-12-20T15:18:56;8.80;99.90
3954;DHT22;1991;48.682;9.030;2022-12-20T15:21:37;8.70;99.90
3954;DHT22;1991;48.682;9.030;2022-12-20T15:24:23;8.70;99.90
3954;DHT22;1991;48.682;9.030;2022-12-20T15:26:50;8.70;99.90
3954;DHT22;1991;48.682;9.030;2022-12-20T15:29:20;8.60;99.90
3954;DHT22;1991;48.682;9.030;2022-12-20T15:31:46;8.50;99.90
3954;DHT22;1991;48.682;9.030;2022-12-20T15:34:29;8.50;99.90
3954;DHT22;1991;48.682;9.030;2022-12-20T15:36:56;8.40;99.90
3954;DHT22;1991;48.682;9.030;2022-12-20T15:39:25;8.50;99.90
3954;DHT22;1991;48.682;9.030;2022-12-20T15:41:51;8.40;99.90
3954;DHT22;1991;48.682;9.030;2022-12-20T15:44:21;8.50;99.90
3954;DHT22;1991;48.682;9.030;2022-12-20T15:46:48;8.50;99.90
3954;DHT22;1991;48.682;9.030;2022-12-20T15:49:22;8.50;99.90
3954;DHT22;1991;48.682;9.030;2022-12-20T15:51:49;8.50;99.90
3954;DHT22;1991;48.682;9.030;2022-12-20T15:56:49;8.50;99.90
3954;DHT22;1991;48.682;9.030;2022-12-20T15:59:15;8.50;99.90
3954;DHT22;1991;48.682;9.030;2022-12-20T16:01:40;8.50;99.90
3954;DHT22;1991;48.682;9.030;2022-12-20T16:04:06;8.50;99.90
3954;DHT22;1991;48.682;9.030;2022-12-20T16:06:32;8.50;99.90
3954;DHT22;1991;48.682;9.030;2022-12-20T16:08:58;8.60;99.90
3954;DHT22;1991;48.682;9.030;2022-12-20T16:11:27;8.70;99.90
3954;DHT22;1991;48.682;9.030;2022-12-20T16:13:57;8.80;99.90
3954;DHT22;1991;48.682;9.030;2022-12-20T16:16:31;8.90;99.90
3954;DHT22;1991;48.682;9.030;2022-12-20T16:18:57;9.00;99.90
3954;DHT22;1991;48.682;9.030;2022-12-20T16:21:26;9.10;99.90
3954;DHT22;1991;48.682;9.030;2022-12-20T16:23:52;9.10;99.90
3954;DHT22;1991;48.682;9.030;2022-12-20T16:26:20;9.10;99.90
3954;DHT22;1991;48.682;9.030;2022-12-20T16:28:47;9.10;99.90
3954;DHT22;1991;48.682;9.030;2022-12-20T16:31:28;9.10;99.90
3954;DHT22;1991;48.682;9.030;2022-12-20T16:34:02;9.10;99.90
3954;DHT22;1991;48.682;9.030;2022-12-20T16:36:28;9.20;99.90
3954;DHT22;1991;48.682;9.030;2022-12-20T16:38:54;9.30;99.90
3954;DHT22;1991;48.682;9.030;2022-12-20T16:43:48;9.50;99.30
3954;DHT22;1991;48.682;9.030;2022-12-20T16:46:17;9.60;99.00
3954;DHT22;1991;48.682;9.030;2022-12-20T16:48:44;9.60;98.90
3954;DHT22;1991;48.682;9.030;2022-12-20T16:51:22;9.60;98.60
3954;DHT22;1991;48.682;9.030;2022-12-20T16:53:50;9.60;98.60
3954;DHT22;1991;48.682;9.030;2022-12-20T16:56:16;9.60;98.50
3954;DHT22;1991;48.682;9.030;2022-12-20T16:58:42;9.60;98.50
3954;DHT22;1991;48.682;9.030;2022-12-20T17:01:13;9.60;98.50
3954;DHT22;1991;48.682;9.030;2022-12-20T17:03:39;9.70;98.40
3954;DHT22;1991;48.682;9.030;2022-12-20T17:06:05;9.70;98.20
3954;DHT22;1991;48.682;9.030;2022-12-20T17:08:30;9.70;98.40
3954;DHT22;1991;48.682;9.030;2022-12-20T17:10:57;9.70;98.40
3954;DHT22;1991;48.682;9.030;2022-12-20T17:13:23;9.60;98.50
3954;DHT22;1991;48.682;9.030;2022-12-20T17:15:48;9.70;98.30
3954;DHT22;1991;48.682;9.030;2022-12-20T17:18:14;9.70;98.10
3954;DHT22;1991;48.682;9.030;2022-12-20T17:20:39;9.70;98.00
3954;DHT22;1991;48.682;9.030;2022-12-20T17:23:14;9.70;97.80
3954;DHT22;1991;48.682;9.030;2022-12-20T17:25:40;9.70;97.90
3954;DHT22;1991;48.682;9.030;2022-12-20T17:28:06;9.70;97.80
3954;DHT22;1991;48.682;9.030;2022-12-20T17:30:31;9.60;98.00
3954;DHT22;1991;48.682;9.030;2022-12-20T17:32:57;9.60;98.00
3954;DHT22;1991;48.682;9.030;2022-12-20T17:35:29;9.60;98.10
3954;DHT22;1991;48.682;9.030;2022-12-20T17:37:55;9.50;98.30
3954;DHT22;1991;48.682;9.030;2022-12-20T17:40:23;9.50;98.20
3954;DHT22;1991;48.682;9.030;2022-12-20T17:42:49;9.50;98.20
3954;DHT22;1991;48.682;9.030;2022-12-20T17:45:24;9.50;98.40
3954;DHT22;1991;48.682;9.030;2022-12-20T17:47:51;9.40;98.40
3954;DHT22;1991;48.682;9.030;2022-12-20T17:50:16;9.40;98.70
3954;DHT22;1991;48.682;9.030;2022-12-20T17:52:45;9.30;99.00
3954;DHT22;1991;48.682;9.030;2022-12-20T17:55:21;9.30;99.10
3954;DHT22;1991;48.682;9.030;2022-12-20T17:57:47;9.30;99.10
3954;DHT22;1991;48.682;9.030;2022-12-20T18:00:26;9.20;99.30
3954;DHT22;1991;48.682;9.030;2022-12-20T18:02:53;9.20;99.40
3954;DHT22;1991;48.682;9.030;2022-12-20T18:05:19;9.10;99.60
3954;DHT22;1991;48.682;9.030;2022-12-20T18:07:49;9.10;99.70
3954;DHT22;1991;48.682;9.030;2022-12-20T18:10:15;9.10;99.80
3954;DHT22;1991;48.682;9.030;2022-12-20T18:12:41;9.10;99.80
3954;DHT22;1991;48.682;9.030;2022-12-20T18:15:07;9.10;99.80
3954;DHT22;1991;48.682;9.030;2022-12-20T18:17:34;9.00;99.90
3954;DHT22;1991;48.682;9.030;2022-12-20T18:20:00;9.00;99.90
3954;DHT22;1991;48.682;9.030;2022-12-20T18:22:26;9.00;99.90
3954;DHT22;1991;48.682;9.030;2022-12-20T18:24:51;9.10;99.90
3954;DHT22;1991;48.682;9.030;2022-12-20T18:27:17;9.00;99.90
3954;DHT22;1991;48.682;9.030;2022-12-20T18:29:43;9.00;99.90